| time (UTC) | temp F | wind direction | speed MPH | gust MPH | rain 1hr in | rain 24hr in | rain mn in | humidity % | barometer mb |
| 20260509051527 | 57 | 305 | 2.0 | 11.0 | 0.00 | 0.00 | 0.00 | 41 | 1003.3 |
| 20260509050034 | 56 | 271 | 7.0 | 12.0 | 0.00 | 0.00 | 0.00 | 41 | 1003.4 |
| 20260509044522 | 55 | 284 | 5.0 | 12.0 | 0.00 | 0.00 | 0.00 | 42 | 1003.3 |
| 20260509043025 | 54 | 257 | 4.0 | 13.0 | 0.00 | 0.00 | 0.00 | 46 | 1003.3 |
| 20260509041512 | 53 | 267 | 3.0 | 9.0 | 0.00 | 0.00 | 0.00 | 47 | 1003.4 |
| 20260509040018 | 54 | 264 | 4.0 | 9.0 | 0.00 | 0.00 | 0.00 | 46 | 1003.7 |
| 20260509034522 | 54 | 257 | 4.0 | 8.0 | 0.00 | 0.00 | 0.00 | 45 | 1003.8 |
| 20260509033024 | 55 | 270 | 3.0 | 7.0 | 0.00 | 0.00 | 0.00 | 45 | 1003.8 |
| 20260509031512 | 56 | 298 | 0.0 | 3.0 | 0.00 | 0.00 | 0.00 | 44 | 1003.8 |
| 20260509030028 | 58 | 298 | 1.0 | 3.0 | 0.00 | 0.00 | 0.00 | 41 | 1003.8 |
| 20260509024521 | 60 | 298 | 0.0 | 2.0 | 0.00 | 0.00 | 0.00 | 38 | 1004.0 |
| 20260509023035 | 61 | 298 | 2.0 | 5.0 | 0.00 | 0.00 | 0.00 | 36 | 1004.0 |
| 20260509021513 | 62 | 316 | 1.0 | 3.0 | 0.00 | 0.00 | 0.00 | 35 | 1004.0 |
| 20260509020016 | 63 | 316 | 2.0 | 4.0 | 0.00 | 0.00 | 0.00 | 34 | 1004.3 |
| 20260509014523 | 65 | 350 | 0.0 | 2.0 | 0.00 | 0.00 | 0.00 | 32 | 1004.4 |
| 20260509013029 | 66 | 350 | 1.0 | 4.0 | 0.00 | 0.00 | 0.00 | 31 | 1004.6 |
| 20260509011514 | 67 | 350 | 2.0 | 5.0 | 0.00 | 0.00 | 0.00 | 30 | 1004.6 |
| 20260509010021 | 67 | 355 | 1.0 | 6.0 | 0.00 | 0.00 | 0.00 | 28 | 1004.7 |
| 20260509004527 | 68 | 360 | 1.0 | 8.0 | 0.00 | 0.00 | 0.00 | 27 | 1004.9 |
| 20260509003042 | 68 | 308 | 2.0 | 8.0 | 0.00 | 0.00 | 0.00 | 28 | 1005.0 |
| 20260509001515 | 69 | 28 | 8.0 | 15.0 | 0.00 | 0.00 | 0.00 | 27 | 1005.2 |
| 20260509000019 | 69 | 5 | 4.0 | 11.0 | 0.00 | 0.00 | 0.00 | 27 | 1005.3 |
| 20260508234527 | 69 | 317 | 7.0 | 14.0 | 0.00 | 0.00 | 0.00 | 27 | 1005.4 |
| 20260508233026 | 70 | 19 | 6.0 | 17.0 | 0.00 | 0.00 | 0.00 | 26 | 1005.5 |
| 20260508231530 | 70 | 36 | 9.0 | 17.0 | 0.00 | 0.00 | 0.00 | 26 | 1005.7 |
| 20260508230026 | 69 | 346 | 10.0 | 18.0 | 0.00 | 0.00 | 0.00 | 27 | 1005.8 |
| 20260508224528 | 70 | 15 | 9.0 | 18.0 | 0.00 | 0.00 | 0.00 | 26 | 1006.0 |
| 20260508223028 | 70 | 33 | 8.0 | 25.0 | 0.00 | 0.00 | 0.00 | 26 | 1005.8 |
| 20260508221506 | 70 | 32 | 8.0 | 21.0 | 0.00 | 0.00 | 0.00 | 24 | 1005.9 |
| 20260508220004 | 70 | 10 | 13.0 | 21.0 | 0.00 | 0.00 | 0.00 | 24 | 1005.8 |
| 20260508214507 | 71 | 10 | 7.0 | 21.0 | 0.00 | 0.00 | 0.00 | 25 | 1005.9 |
| 20260508213002 | 71 | 348 | 8.0 | 24.0 | 0.00 | 0.00 | 0.00 | 23 | 1005.9 |
| 20260508211503 | 71 | 33 | 10.0 | 21.0 | 0.00 | 0.00 | 0.00 | 24 | 1005.9 |
| 20260508210006 | 71 | 29 | 12.0 | 22.0 | 0.00 | 0.00 | 0.00 | 24 | 1005.8 |
| 20260508204510 | 71 | 57 | 10.0 | 24.0 | 0.00 | 0.00 | 0.00 | 23 | 1005.8 |
| 20260508203002 | 71 | 27 | 9.0 | 18.0 | 0.00 | 0.00 | 0.00 | 23 | 1005.8 |
| 20260508201504 | 71 | 343 | 9.0 | 21.0 | 0.00 | 0.00 | 0.00 | 24 | 1005.9 |
| 20260508200007 | 71 | 144 | 6.0 | 21.0 | 0.00 | 0.00 | 0.00 | 27 | 1005.8 |
| 20260508194510 | 70 | 26 | 13.0 | 22.0 | 0.00 | 0.00 | 0.00 | 23 | 1005.8 |
| 20260508193005 | 71 | 9 | 5.0 | 21.0 | 0.00 | 0.00 | 0.00 | 25 | 1005.7 |
| 20260508191504 | 71 | 348 | 9.0 | 18.0 | 0.00 | 0.00 | 0.00 | 24 | 1005.7 |
| 20260508190007 | 70 | 49 | 8.0 | 23.0 | 0.00 | 0.00 | 0.00 | 25 | 1005.6 |
| 20260508184510 | 71 | 360 | 5.0 | 18.0 | 0.00 | 0.00 | 0.00 | 27 | 1005.7 |
| 20260508183019 | 70 | 9 | 7.0 | 17.0 | 0.00 | 0.00 | 0.00 | 27 | 1005.7 |
| 20260508181504 | 69 | 341 | 10.0 | 22.0 | 0.00 | 0.00 | 0.00 | 28 | 1005.7 |
| 20260508180008 | 70 | 11 | 9.0 | 17.0 | 0.00 | 0.00 | 0.00 | 27 | 1005.9 |
| 20260508174529 | 70 | 332 | 9.0 | 16.0 | 0.00 | 0.00 | 0.00 | 30 | 1005.9 |
| 20260508173020 | 70 | 9 | 7.0 | 14.0 | 0.00 | 0.00 | 0.00 | 27 | 1005.9 |
| 20260508171506 | 70 | 15 | 2.0 | 16.0 | 0.00 | 0.00 | 0.00 | 28 | 1005.9 |
| 20260508170010 | 71 | 32 | 4.0 | 11.0 | 0.00 | 0.00 | 0.00 | 27 | 1006.0 |
| 20260508164516 | 70 | 350 | 3.0 | 10.0 | 0.00 | 0.00 | 0.00 | 24 | 1006.0 |
| 20260508163038 | 69 | 9 | 4.0 | 11.0 | 0.00 | 0.00 | 0.00 | 24 | 1006.1 |
| 20260508161504 | 68 | 11 | 2.0 | 12.0 | 0.00 | 0.00 | 0.00 | 27 | 1006.2 |
| 20260508160012 | 68 | 10 | 2.0 | 9.0 | 0.00 | 0.00 | 0.00 | 34 | 1006.2 |
| 20260508154515 | 65 | 300 | 2.0 | 9.0 | 0.00 | 0.00 | 0.00 | 38 | 1006.2 |
| 20260508153027 | 62 | 289 | 3.0 | 7.0 | 0.00 | 0.00 | 0.00 | 41 | 1006.4 |
| 20260508151518 | 59 | 300 | 3.0 | 8.0 | 0.00 | 0.00 | 0.00 | 42 | 1006.5 |
| 20260508150010 | 58 | 325 | 0.0 | 6.0 | 0.00 | 0.00 | 0.00 | 44 | 1006.7 |
| 20260508144518 | 57 | 340 | 1.0 | 7.0 | 0.00 | 0.00 | 0.00 | 46 | 1006.8 |
| 20260508143022 | 54 | 311 | 1.0 | 9.0 | 0.00 | 0.00 | 0.00 | 49 | 1006.7 |
| 20260508141527 | 51 | 281 | 0.0 | 6.0 | 0.00 | 0.00 | 0.00 | 51 | 1006.7 |
| 20260508140014 | 50 | 276 | 0.0 | 7.0 | 0.00 | 0.00 | 0.00 | 51 | 1007.0 |
| 20260508134524 | 48 | 248 | 0.0 | 4.0 | 0.00 | 0.00 | 0.00 | 54 | 1006.8 |
| 20260508133026 | 47 | 245 | 1.0 | 5.0 | 0.00 | 0.00 | 0.00 | 54 | 1006.8 |
| 20260508131528 | 46 | 254 | 2.0 | 5.0 | 0.00 | 0.00 | 0.00 | 56 | 1007.1 |
| 20260508130016 | 44 | 244 | 0.0 | 5.0 | 0.00 | 0.00 | 0.00 | 58 | 1007.3 |
| 20260508124521 | 42 | 257 | 1.0 | 3.0 | 0.00 | 0.00 | 0.00 | 60 | 1007.0 |
| 20260508123032 | 40 | 257 | 1.0 | 7.0 | 0.00 | 0.00 | 0.00 | 62 | 1007.1 |
| 20260508121530 | 39 | 257 | 0.0 | 4.0 | 0.00 | 0.00 | 0.00 | 65 | 1007.1 |
| 20260508120017 | 38 | 317 | 0.0 | 0.0 | 0.00 | 0.00 | 0.00 | 67 | 1007.2 |
| 20260508114521 | 38 | 317 | 0.0 | 0.0 | 0.00 | 0.00 | 0.00 | 68 | 1007.0 |
| 20260508113025 | 38 | 317 | 0.0 | 0.0 | 0.00 | 0.00 | 0.00 | 69 | 1007.1 |
| 20260508111527 | 39 | 317 | 0.0 | 0.0 | 0.00 | 0.00 | 0.00 | 68 | 1007.0 |
| 20260508110022 | 40 | 317 | 0.0 | 0.0 | 0.00 | 0.00 | 0.00 | 69 | 1006.9 |
| 20260508104523 | 41 | 317 | 0.0 | 0.0 | 0.00 | 0.00 | 0.00 | 62 | 1007.1 |
| 20260508103030 | 41 | 317 | 0.0 | 3.0 | 0.00 | 0.00 | 0.00 | 61 | 1007.3 |
| 20260508101524 | 41 | 332 | 0.0 | 2.0 | 0.00 | 0.00 | 0.00 | 59 | 1007.3 |
| 20260508100005 | 41 | 332 | 0.0 | 0.0 | 0.00 | 0.00 | 0.00 | 59 | 1007.3 |
| 20260508094503 | 41 | 332 | 0.0 | 0.0 | 0.00 | 0.00 | 0.00 | 60 | 1007.4 |
| 20260508093027 | 41 | 332 | 0.0 | 0.0 | 0.00 | 0.00 | 0.00 | 60 | 1007.3 |
| 20260508091522 | 41 | 332 | 0.0 | 0.0 | 0.00 | 0.00 | 0.00 | 59 | 1007.5 |
| 20260508090009 | 41 | 332 | 0.0 | 0.0 | 0.00 | 0.00 | 0.00 | 58 | 1007.5 |
| 20260508084504 | 40 | 333 | 0.0 | 0.0 | 0.00 | 0.00 | 0.00 | 60 | 1007.5 |
| 20260508083017 | 40 | 333 | 0.0 | 0.0 | 0.00 | 0.00 | 0.00 | 56 | 1007.4 |
| 20260508081518 | 40 | 333 | 0.0 | 0.0 | 0.00 | 0.00 | 0.00 | 55 | 1007.6 |
| 20260508080005 | 40 | 333 | 0.0 | 0.0 | 0.00 | 0.00 | 0.00 | 57 | 1007.8 |
| 20260508074513 | 40 | 333 | 0.0 | 1.0 | 0.00 | 0.00 | 0.00 | 57 | 1007.9 |
| 20260508073013 | 40 | 333 | 0.0 | 0.0 | 0.00 | 0.00 | 0.00 | 57 | 1007.9 |
| 20260508071522 | 41 | 333 | 0.0 | 0.0 | 0.00 | 0.00 | 0.00 | 56 | 1007.9 |
| 20260508070025 | 41 | 333 | 0.0 | 0.0 | 0.00 | 0.00 | 0.00 | 54 | 1007.8 |
| 20260508064512 | 42 | 333 | 0.0 | 0.0 | 0.00 | 0.00 | 0.00 | 53 | 1007.9 |
| 20260508063014 | 43 | 333 | 0.0 | 0.0 | 0.00 | 0.00 | 0.00 | 51 | 1007.9 |
| 20260508061521 | 44 | 333 | 0.0 | 0.0 | 0.00 | 0.00 | 0.00 | 51 | 1007.9 |
| 20260508060025 | 46 | 333 | 0.0 | 0.0 | 0.00 | 0.00 | 0.00 | 49 | 1007.8 |
| 20260508054508 | 46 | 333 | 0.0 | 3.0 | 0.00 | 0.00 | 0.00 | 48 | 1007.9 |
| 20260508053014 | 46 | 332 | 1.0 | 3.0 | 0.00 | 0.00 | 0.00 | 47 | 1008.1 |